Carrollton, Texas
Current Conditions -  °F | °C
As of 3:55 AM on Sunday 23 Nov 2014 (Local Time) from KADS Reporting Station
Haze Haze  
Wind Chill: 58°   Ceiling: 300
Heat Index: 58°   Visibility: 2.5mi
Dew Point: 58°   Wind: 3mph
Humidity: 100%   Direction: 230°SW
Pressure: 29.64"   Gusts: NA
Location:  32.98°N, 96.89°W
Report Text: KADS 230955Z AUTO 23003KT 2 1/2SM BR OVC003 15/15 A2964 RMK AO2 T01450145
Loading
Personal Weather Stations






























Interactive Weather Map New forecast layout! Learn more

10-Day Weather Forecast

Advertisements
Track Severe Weather on mobile